createdAt,value
2019-01-26T08:38:44.517Z,72.66
2019-01-26T08:43:51.299Z,72.64
2019-01-26T08:48:58.687Z,72.15
2019-01-26T08:54:05.078Z,71.81
2019-01-26T08:59:10.765Z,72.04
2019-01-26T09:04:26.379Z,71.66
2019-01-26T09:09:31.966Z,71.86
2019-01-26T09:14:37.574Z,71.51
2019-01-26T09:19:43.208Z,71.66
2019-01-26T09:24:48.855Z,71.71
2019-01-26T09:29:54.533Z,70.98
2019-01-26T09:35:00.445Z,70.99
2019-01-26T09:40:08.580Z,71.40
2019-01-26T09:45:16.216Z,72.06
2019-01-26T09:50:23.054Z,70.54
2019-01-26T09:55:28.731Z,70.10
2019-01-26T10:00:35.148Z,69.69
2019-01-26T10:05:40.853Z,69.18
2019-01-26T10:10:46.920Z,69.26
2019-01-26T10:15:52.554Z,70.00
2019-01-26T10:20:59.274Z,70.13
2019-01-26T10:26:07.996Z,70.04
2019-01-26T10:31:14.711Z,69.74
2019-01-26T10:36:42.219Z,69.53
2019-01-26T10:42:06.549Z,69.59
2019-01-26T10:47:14.503Z,70.56
2019-01-26T10:52:20.135Z,70.77
2019-01-26T10:57:25.710Z,69.88
2019-01-26T11:02:31.835Z,70.48
2019-01-26T11:07:37.493Z,70.39
2019-01-26T11:12:44.363Z,70.24
2019-01-26T11:17:50.095Z,69.82
2019-01-26T11:22:57.490Z,70.21
2019-01-26T11:28:03.926Z,69.96
2019-01-26T11:33:09.970Z,70.22
2019-01-26T11:38:15.663Z,69.93
2019-01-26T11:43:22.262Z,69.51
2019-01-26T11:48:31.908Z,70.53
2019-01-26T11:53:38.059Z,70.45
2019-01-26T11:58:43.659Z,70.25
2019-01-26T12:03:57.744Z,70.09
2019-01-26T12:09:06.156Z,70.40
2019-01-26T12:14:11.973Z,70.88
2019-01-26T12:19:22.337Z,70.89
2019-01-26T12:24:25.031Z,71.08
2019-01-26T12:29:30.801Z,71.17
2019-01-26T12:34:37.611Z,70.91
2019-01-26T12:39:43.721Z,70.59
2019-01-26T12:44:49.535Z,70.15
2019-01-26T12:49:58.360Z,72.08
2019-01-26T12:55:04.247Z,71.40
2019-01-26T13:00:13.392Z,71.67
2019-01-26T13:05:20.671Z,71.62
2019-01-26T13:10:30.099Z,71.54
2019-01-26T13:15:36.306Z,72.28
2019-01-26T13:20:42.049Z,72.38
2019-01-26T13:25:49.287Z,71.92
2019-01-26T13:30:55.146Z,72.84
2019-01-26T13:36:00.874Z,73.38
2019-01-26T13:41:09.597Z,72.52
2019-01-26T13:46:15.882Z,73.38
2019-01-26T13:51:23.195Z,73.25
2019-01-26T13:56:29.804Z,73.35
2019-01-26T14:01:35.677Z,73.34
2019-01-26T14:06:44.066Z,73.37
2019-01-26T14:11:49.774Z,73.70
2019-01-26T14:16:56.215Z,73.03
2019-01-26T14:22:02.668Z,73.21
2019-01-26T14:27:08.565Z,73.30
2019-01-26T14:32:14.292Z,73.64
2019-01-26T14:37:20.534Z,73.75
2019-01-26T14:42:26.279Z,73.75
2019-01-26T14:47:33.356Z,74.06
2019-01-26T14:52:41.998Z,74.42
2019-01-26T14:57:49.241Z,74.39
2019-01-26T15:02:55.639Z,74.51
2019-01-26T15:08:01.816Z,74.58
2019-01-26T15:13:08.145Z,74.61
2019-01-26T15:18:13.940Z,74.54
2019-01-26T15:23:19.698Z,75.12
2019-01-26T15:28:25.836Z,74.68
2019-01-26T15:33:33.283Z,74.53
2019-01-26T15:38:41.737Z,74.64
2019-01-26T15:43:49.131Z,74.87
2019-01-26T15:48:59.660Z,74.84
2019-01-26T15:54:06.031Z,74.84
2019-01-26T15:59:14.751Z,74.83
2019-01-26T16:04:22.144Z,74.92
2019-01-26T16:09:28.699Z,74.47
2019-01-26T16:14:34.806Z,74.62
2019-01-26T16:19:41.490Z,74.34
2019-01-26T16:24:47.439Z,74.75
2019-01-26T16:29:54.447Z,74.10
2019-01-26T16:35:00.285Z,74.65
2019-01-26T16:40:08.163Z,74.71
2019-01-26T16:45:17.190Z,74.49
2019-01-26T16:50:27.808Z,74.42
2019-01-26T16:55:36.301Z,73.88
2019-01-26T17:00:48.270Z,74.41
2019-01-26T17:05:54.350Z,74.55
2019-01-26T17:11:04.708Z,74.59
2019-01-26T17:16:10.498Z,74.45
2019-01-26T17:21:18.067Z,74.47
2019-01-26T17:26:24.979Z,74.05
2019-01-26T17:31:30.692Z,74.63
2019-01-26T17:36:39.087Z,74.15
2019-01-26T17:41:45.378Z,75.21
2019-01-26T17:46:51.180Z,74.77
2019-01-26T17:52:00.336Z,74.16
2019-01-26T17:57:08.502Z,74.20
2019-01-26T18:02:15.618Z,73.96
2019-01-26T18:07:22.467Z,73.37
2019-01-26T18:12:28.906Z,73.82
2019-01-26T18:17:34.621Z,73.27
2019-01-26T18:22:43.128Z,73.33
2019-01-26T18:27:49.362Z,73.85
2019-01-26T18:32:56.262Z,73.85
2019-01-26T18:38:06.762Z,73.46
2019-01-26T18:43:12.934Z,73.35
2019-01-26T18:48:19.154Z,73.67
2019-01-26T18:53:25.970Z,73.30
2019-01-26T18:58:33.589Z,73.32
2019-01-26T19:04:09.567Z,73.32
2019-01-26T19:09:17.866Z,73.61
2019-01-26T19:14:24.525Z,74.31
2019-01-26T19:19:31.375Z,73.85
2019-01-26T19:24:37.431Z,74.72
2019-01-26T19:29:46.687Z,74.69
2019-01-26T19:34:54.066Z,74.19
2019-01-26T19:40:01.376Z,74.15
2019-01-26T19:45:10.112Z,74.00
2019-01-26T19:50:21.204Z,73.61
2019-01-26T19:55:30.191Z,73.42
2019-01-26T20:00:44.688Z,73.51
2019-01-26T20:05:52.118Z,73.71
2019-01-26T20:11:00.420Z,72.64
2019-01-26T20:16:09.594Z,73.39
2019-01-26T20:21:17.747Z,73.17
2019-01-26T20:26:27.169Z,73.22
2019-01-26T20:31:46.151Z,73.76
2019-01-26T20:42:25.047Z,73.99
2019-01-26T20:47:31.487Z,74.34
2019-01-26T20:52:37.805Z,74.56
2019-01-26T20:57:44.979Z,73.58
2019-01-26T21:02:52.930Z,74.21
2019-01-26T21:08:01.741Z,73.47
2019-01-26T21:13:16.112Z,73.11
2019-01-26T21:18:20.704Z,73.23
2019-01-26T21:23:28.024Z,73.00
2019-01-26T21:28:34.859Z,72.81
2019-01-26T21:33:41.168Z,72.43
2019-01-26T21:38:46.940Z,72.64
2019-01-26T21:43:52.705Z,72.03
2019-01-26T21:48:58.480Z,72.86
2019-01-26T21:54:06.410Z,72.58
2019-01-26T21:59:15.161Z,71.98
2019-01-26T22:04:21.538Z,71.54
2019-01-26T22:09:30.279Z,71.28
2019-01-26T22:14:36.148Z,71.48
2019-01-26T22:19:43.465Z,71.09
2019-01-26T22:24:50.819Z,70.57
2019-01-26T22:29:57.543Z,70.60
2019-01-26T22:35:03.369Z,70.02
2019-01-26T22:40:12.662Z,69.95
2019-01-26T22:45:19.369Z,69.85
2019-01-26T22:50:25.245Z,69.74
2019-01-26T22:55:30.828Z,69.16
2019-01-26T23:01:09.456Z,69.00
2019-01-26T23:06:42.732Z,68.41
2019-01-26T23:12:20.800Z,68.74
2019-01-26T23:18:04.446Z,69.31
2019-01-26T23:23:28.114Z,68.94
2019-01-26T23:29:13.510Z,68.77
2019-01-26T23:34:19.098Z,68.59
2019-01-26T23:39:24.723Z,68.20
2019-01-26T23:44:30.325Z,67.76
2019-01-26T23:54:55.318Z,66.64
